サンフアン の空港の天気 - METARとTAF

ルイス・ムニョス・マリン国際空港 ( TJSJ / SJU ) - プエルトリコ サンフアン
飛行場実況気象(Metar)
観測時間05/28 17:56 AST (05/28 21:56 UTC)
風向・風速東北東 9m/s
視程10km以上
天気現象
少しの雲 雲底高度 980m
全天の4割程度の雲 雲底高度 1220m
全天の4割程度の雲 雲底高度 2440m
気温27.8℃
湿度77%
気圧1015.2hPa
METARTJSJ 282156Z 07018KT 10SM FEW032 SCT040 SCT080 28/23 A2998 RMK AO2 SLP152 T02780233
過去の天気等 Google飛行場航空写真 Wunderground天気予報

過去48時間のMETAR

飛行場予報(TAF)
発表時間: 5/28 13:32 AST (5/28 17:32 UTC)
予報対象時間: 28日14時 AST ~ 29日14時 AST
風向・風速東北東 9m/s
視程10km以上
天気現象周辺で雷
少しの積乱雲 雲底高度 790m
全天の4割程度の雲 雲底高度 2740m
全天の4割程度の雲 雲底高度 3350m
28日16時 AST から
風向・風速東北東 8m/s
視程10km以上
天気現象周辺でしゅう雨
少しの雲 雲底高度 1070m
全天の4割程度の雲 雲底高度 1830m
全天の4割程度の雲 雲底高度 4570m
28日19時 AST から
風向・風速東 5m/s
視程10km以上
少しの雲 雲底高度 1070m
全天の4割程度の雲 雲底高度 1520m
29日0時 AST から
風向・風速東南東 2m/s
視程10km以上
少しの雲 雲底高度 790m
全天の4割程度の雲 雲底高度 2440m
TJSJ 281732Z 2818/2918 06017KT P6SM VCTS FEW026CB SCT090 SCT110
FM282000 07016KT P6SM VCSH FEW035 SCT060 SCT150
FM282300 10009KT P6SM FEW035 SCT050
FM290400 12003KT P6SM FEW026 SCT080